Map

Track Data

SID SEASON NUMBER BASIN SUBBASIN NAME ISO_TIME NATURE LAT LON WMO_WIND WMO_PRES WMO_AGENCY TRACK_TYPE DIST2LAND LANDFALL IFLAG USA_AGENCY USA_ATCF_ID USA_LAT USA_LON USA_RECORD USA_STATUS USA_WIND USA_PRES USA_SSHS USA_R34_NE USA_R34_SE USA_R34_SW USA_R34_NW USA_R50_NE USA_R50_SE USA_R50_SW USA_R50_NW USA_R64_NE USA_R64_SE USA_R64_SW USA_R64_NW USA_POCI USA_ROCI USA_RMW USA_EYE TOKYO_LAT TOKYO_LON TOKYO_GRADE TOKYO_WIND TOKYO_PRES TOKYO_R50_DIR TOKYO_R50_LONG TOKYO_R50_SHORT TOKYO_R30_DIR TOKYO_R30_LONG TOKYO_R30_SHORT TOKYO_LAND CMA_LAT CMA_LON CMA_CAT CMA_WIND CMA_PRES HKO_LAT HKO_LON HKO_CAT HKO_WIND HKO_PRES NEWDELHI_LAT NEWDELHI_LON NEWDELHI_GRADE NEWDELHI_WIND NEWDELHI_PRES NEWDELHI_CI NEWDELHI_DP NEWDELHI_POCI REUNION_LAT REUNION_LON REUNION_TYPE REUNION_WIND REUNION_PRES REUNION_TNUM REUNION_CI REUNION_RMW REUNION_R34_NE REUNION_R34_SE REUNION_R34_SW REUNION_R34_NW REUNION_R50_NE REUNION_R50_SE REUNION_R50_SW REUNION_R50_NW REUNION_R64_NE REUNION_R64_SE REUNION_R64_SW REUNION_R64_NW BOM_LAT BOM_LON BOM_TYPE BOM_WIND BOM_PRES BOM_TNUM BOM_CI BOM_RMW BOM_R34_NE BOM_R34_SE BOM_R34_SW BOM_R34_NW BOM_R50_NE BOM_R50_SE BOM_R50_SW BOM_R50_NW BOM_R64_NE BOM_R64_SE BOM_R64_SW BOM_R64_NW BOM_ROCI BOM_POCI BOM_EYE BOM_POS_METHOD BOM_PRES_METHOD NADI_LAT NADI_LON NADI_CAT NADI_WIND NADI_PRES WELLINGTON_LAT WELLINGTON_LON WELLINGTON_WIND WELLINGTON_PRES DS824_LAT DS824_LON DS824_STAGE DS824_WIND DS824_PRES TD9636_LAT TD9636_LON TD9636_STAGE TD9636_WIND TD9636_PRES TD9635_LAT TD9635_LON TD9635_WIND TD9635_PRES TD9635_ROCI NEUMANN_LAT NEUMANN_LON NEUMANN_CLASS NEUMANN_WIND NEUMANN_PRES MLC_LAT MLC_LON MLC_CLASS MLC_WIND MLC_PRES USA_GUST BOM_GUST BOM_GUST_PER REUNION_GUST REUNION_GUST_PER USA_SEAHGT USA_SEARAD_NE USA_SEARAD_SE USA_SEARAD_SW USA_SEARAD_NW STORM_SPEED STORM_DIR
1939214N23125 1939 44 WP MM NOT_NAMED 1939-08-01 12:00:00 NR 22.5508 124.822 spur-other 352 330 ______________ -1 10 352
1939214N23125 1939 44 WP MM NOT_NAMED 1939-08-01 15:00:00 NR 23.0641 124.740 spur-other 324 305 ______________ -1 10 356
1939214N23125 1939 44 WP MM NOT_NAMED 1939-08-01 18:00:00 NR 23.5446 124.749 spur-other 305 301 ______________ -1 9 10
1939214N23125 1939 44 WP MM NOT_NAMED 1939-08-01 21:00:00 NR 23.9725 124.905 spur-other 309 309 ______________ -1 9 23
1939214N23125 1939 44 WP MM NOT_NAMED 1939-08-01 22:00:00 NR 24.1000 125.000 spur-other 317 317 __________O___ -1 24.1000 125.000 2 10 42
1939214N23125 1939 44 WP MM NOT_NAMED 1939-08-02 00:00:00 NR 24.3298 125.260 spur-other 342 339 __________P___ -1 24.2846 125.383 2 11 54
1939214N23125 1939 44 WP MM NOT_NAMED 1939-08-02 03:00:00 NR 24.6238 125.789 spur-other 385 385 __________P___ -1 24.5601 125.959 2 12 63
1939214N23125 1939 44 WP MM NOT_NAMED 1939-08-02 06:00:00 NR 24.8783 126.421 spur-other 443 443 __________P___ -1 24.8345 126.535 2 13 67
1939214N23125 1939 44 WP MM NOT_NAMED 1939-08-02 09:00:00 NR 25.1186 127.085 spur-other 513 513 __________P___ -1 25.1086 127.109 2 13 68
1939214N23125 1939 44 WP MM NOT_NAMED 1939-08-02 10:00:00 NR 25.2000 127.300 spur-other 533 533 __________O___ -1 25.2000 127.300 2 12 64
1939214N23125 1939 44 WP MM NOT_NAMED 1939-08-02 12:00:00 NR 25.3830 127.681 spur-other 574 574 __________P___ -1 25.3830 127.681 2 12 62
1939214N23125 1939 44 WP MM NOT_NAMED 1939-08-02 15:00:00 NR 25.6578 128.245 spur-other 627 598 __________P___ -1 25.6578 128.245 2 11 61
1939214N23125 1939 44 WP MM NOT_NAMED 1939-08-02 18:00:00 NR 25.9329 128.796 spur-other 598 552 __________P___ -1 25.9329 128.796 2 11 61
1939214N23125 1939 44 WP MM NOT_NAMED 1939-08-02 21:00:00 NR 26.2082 129.328 spur-other 552 537 __________P___ -1 26.2082 129.328 2 11 60
1939214N23125 1939 44 WP MM NOT_NAMED 1939-08-02 22:00:00 NR 26.3000 129.500 spur-other 537 509 __________O___ -1 26.3000 129.500 2 11 58
1939214N23125 1939 44 WP MM NOT_NAMED 1939-08-03 00:00:00 NR 26.4934 129.844 spur-other 509 470 __________P___ -1 26.4837 129.835 2 11 57
1939214N23125 1939 44 WP MM NOT_NAMED 1939-08-03 03:00:00 NR 26.7842 130.342 spur-other 470 446 __________P___ -1 26.7592 130.318 2 10 57
1939214N23125 1939 44 WP MM NOT_NAMED 1939-08-03 06:00:00 NR 27.0645 130.815 spur-other 435 414 __________P___ -1 27.0343 130.787 2 10 57
1939214N23125 1939 44 WP MM NOT_NAMED 1939-08-03 09:00:00 NR 27.3216 131.259 spur-other 417 406 __________P___ -1 27.3088 131.247 2 9 57
1939214N23125 1939 44 WP MM NOT_NAMED 1939-08-03 10:00:00 NR 27.4000 131.400 spur-other 407 __________O___ -1 27.4000 131.400 2 9 58

Digital Typhoon Data and Search

About IBTrACS Database

This database is a web-friendly format of International Best Track Archive for Climate Stewardship (IBTrACS), a global best track data archive curated by NOAA dating back to 1842.

Updated: 2021-11-26